Time;durP1;ratioP1;P1;durP2;ratioP2;P2;SDS_P1;SDS_P2;PMS_P1;PMS_P2;Temp;Humidity;BMP_temperature;BMP_pressure;BME280_temperature;BME280_humidity;BME280_pressure;Samples;Min_cycle;Max_cycle;Signal;HPM_P1;HPM_P2
2022/12/11 00:00:45;;;;;;;104.13;27.70;;;;;;;-0.08;98.46;100711.66;5054825;28;20514;-62
2022/12/11 00:03:15;;;;;;;102.80;26.77;;;;;;;-0.12;98.72;100714.53;5054784;28;20067;-62
2022/12/11 00:05:43;;;;;;;106.78;25.88;;;;;;;-0.07;98.60;100713.34;5054608;28;20072;-62
2022/12/11 00:08:11;;;;;;;115.38;27.70;;;;;;;-0.21;98.56;100714.13;5054704;28;20505;-62
2022/12/11 00:10:38;;;;;;;107.10;28.85;;;;;;;-0.24;99.68;100716.06;5054995;28;20406;-62
2022/12/11 00:13:05;;;;;;;116.32;27.38;;;;;;;-0.37;99.91;100718.50;5054864;28;20040;-62
2022/12/11 00:15:31;;;;;;;105.25;25.50;;;;;;;-0.43;100.00;100711.03;5054815;28;20060;-62
2022/12/11 00:17:58;;;;;;;123.80;29.27;;;;;;;-0.43;100.00;100709.25;5055134;28;20056;-62
2022/12/11 00:20:26;;;;;;;118.53;27.60;;;;;;;-0.29;100.00;100710.25;5054637;28;20041;-62
2022/12/11 00:22:52;;;;;;;112.63;27.58;;;;;;;-0.12;100.00;100717.16;5054934;28;20124;-62
2022/12/11 00:25:19;;;;;;;107.85;27.77;;;;;;;-0.08;99.69;100722.09;5053855;28;20132;-62
2022/12/11 00:27:46;;;;;;;102.90;27.75;;;;;;;-0.11;99.32;100719.69;5054804;28;20490;-62
2022/12/11 00:30:13;;;;;;;109.88;27.60;;;;;;;-0.17;100.00;100725.22;5054686;28;20041;-62
2022/12/11 00:32:41;;;;;;;100.38;25.35;;;;;;;-0.15;100.00;100728.56;5053022;28;20318;-62
2022/12/11 00:35:08;;;;;;;109.63;27.13;;;;;;;-0.13;100.00;100723.28;5054404;28;20103;-62
2022/12/11 00:37:35;;;;;;;119.82;26.60;;;;;;;-0.04;99.92;100718.41;5054384;28;20052;-62
2022/12/11 00:40:02;;;;;;;118.20;26.85;;;;;;;-0.06;99.45;100717.63;5054362;28;20490;-62
2022/12/11 00:42:29;;;;;;;118.78;28.80;;;;;;;0.11;99.04;100718.44;5054274;28;20045;-62
2022/12/11 00:44:56;;;;;;;98.70;23.20;;;;;;;-0.07;99.26;100723.78;5054446;28;20087;-63
2022/12/11 00:47:23;;;;;;;103.45;26.55;;;;;;;-0.14;99.66;100724.22;5054276;28;20049;-63
2022/12/11 00:49:49;;;;;;;105.38;27.38;;;;;;;-0.22;100.00;100715.06;5054134;28;20075;-63
2022/12/11 00:52:16;;;;;;;96.57;25.20;;;;;;;-0.17;100.00;100717.41;5069787;28;20045;-62
2022/12/11 00:54:43;;;;;;;102.88;26.50;;;;;;;0.09;99.75;100717.69;5053891;28;20041;-62
2022/12/11 00:57:10;;;;;;;95.20;25.77;;;;;;;0.10;99.46;100715.00;5069518;28;20076;-62
2022/12/11 00:59:37;;;;;;;91.60;25.60;;;;;;;0.11;98.45;100715.84;5053936;28;20487;-62
2022/12/11 01:02:04;;;;;;;88.75;24.35;;;;;;;0.01;98.32;100715.53;5053778;28;20209;-62
2022/12/11 01:04:34;;;;;;;89.50;24.75;;;;;;;-0.17;99.33;100708.75;5053957;28;20060;-62
2022/12/11 01:07:01;;;;;;;85.97;21.67;;;;;;;-0.35;99.39;100705.38;5053526;28;20056;-62
2022/12/11 01:12:15;;;;;;;81.72;24.92;;;;;;;-0.29;100.00;100705.03;5053509;28;20047;-62
2022/12/11 01:14:42;;;;;;;74.38;20.35;;;;;;;-0.18;99.56;100707.91;5053885;28;20111;-62
2022/12/11 01:17:08;;;;;;;71.03;21.17;;;;;;;-0.09;98.95;100704.78;5053515;28;20045;-62
2022/12/11 01:19:36;;;;;;;78.05;22.67;;;;;;;-0.02;97.29;100713.94;5052422;28;20044;-62
2022/12/11 01:22:02;;;;;;;63.33;20.55;;;;;;;-0.08;98.17;100716.88;5053671;28;20052;-62
2022/12/11 01:24:30;;;;;;;79.07;21.33;;;;;;;-0.11;97.73;100716.22;5053784;28;20508;-62
2022/12/11 01:26:57;;;;;;;79.47;23.83;;;;;;;-0.14;98.37;100716.41;5053587;28;20064;-62
2022/12/11 01:29:23;;;;;;;65.10;20.70;;;;;;;-0.15;98.13;100710.31;5053500;28;20490;-62
2022/12/11 01:31:50;;;;;;;81.03;22.45;;;;;;;-0.11;98.05;100714.47;5053782;28;20064;-62
2022/12/11 01:34:17;;;;;;;76.82;23.25;;;;;;;-0.10;98.88;100712.69;5053344;28;20179;-62
2022/12/11 01:36:43;;;;;;;75.88;23.55;;;;;;;-0.14;98.07;100713.78;5053086;28;20132;-62
2022/12/11 01:39:10;;;;;;;83.15;23.45;;;;;;;-0.05;98.09;100706.28;5053521;28;20040;-62
2022/12/11 01:41:37;;;;;;;74.63;23.15;;;;;;;0.02;97.31;100718.97;5053113;28;20049;-62
2022/12/11 01:44:26;;;;;;;69.63;22.20;;;;;;;-0.01;97.87;100720.81;5068957;28;20057;-62
2022/12/11 01:46:53;;;;;;;79.43;23.48;;;;;;;-0.18;98.79;100712.25;5052797;28;20131;-62
2022/12/11 01:49:24;;;;;;;78.95;22.75;;;;;;;-0.01;98.75;100712.16;5053932;28;20049;-63
2022/12/11 01:51:57;;;;;;;;;;;;;;;0.03;98.15;100708.44;5052490;28;20107;-61
2022/12/11 01:54:27;;;;;;;71.60;20.45;;;;;;;0.02;98.15;100706.78;5053463;28;19947;-61
2022/12/11 01:56:57;;;;;;;82.55;22.80;;;;;;;0.13;97.68;100707.00;5052888;28;20053;-61
2022/12/11 01:59:27;;;;;;;71.00;21.08;;;;;;;0.00;97.34;100703.44;5053466;28;20067;-62
2022/12/11 02:01:59;;;;;;;72.53;20.17;;;;;;;-0.08;97.25;100705.63;5052797;28;20053;-61
2022/12/11 02:04:28;;;;;;;73.43;21.77;;;;;;;-0.10;97.68;100697.88;5053156;28;20059;-61
2022/12/11 02:06:55;;;;;;;66.45;19.60;;;;;;;-0.09;97.33;100698.69;5052454;28;20045;-61
2022/12/11 02:09:26;;;;;;;63.67;19.98;;;;;;;-0.09;96.84;100702.19;5068583;28;20055;-61
2022/12/11 02:12:04;;;;;;;65.07;21.70;;;;;;;-0.04;95.98;100699.28;5053384;28;20056;-61
2022/12/11 02:14:40;;;;;;;60.60;19.05;;;;;;;-0.12;95.82;100699.72;5052965;28;20078;-61
2022/12/11 02:17:17;;;;;;;61.90;19.00;;;;;;;-0.22;96.57;100690.72;5053238;28;20574;-61
2022/12/11 02:25:20;;;;;;;63.63;19.48;;;;;;;0.07;96.15;100686.47;5111069;27;20362;-61
2022/12/11 02:27:56;;;;;;;62.00;19.48;;;;;;;0.05;95.84;100682.28;5111236;28;20096;-61
2022/12/11 02:30:23;;;;;;;62.63;19.58;;;;;;;0.15;96.02;100678.22;5111305;28;20058;-61
2022/12/11 02:32:54;;;;;;;71.80;20.13;;;;;;;0.33;95.03;100669.31;5110858;28;20044;-62
2022/12/11 02:35:25;;;;;;;72.53;20.80;;;;;;;0.29;95.34;100678.28;5110855;28;20055;-62
2022/12/11 02:37:58;;;;;;;67.50;19.92;;;;;;;0.29;94.70;100674.81;5110995;28;20047;-62
2022/12/11 02:40:29;;;;;;;63.80;19.77;;;;;;;0.31;94.94;100678.16;5111235;28;20070;-62
2022/12/11 02:43:00;;;;;;;68.00;19.67;;;;;;;0.37;95.35;100678.66;5109449;28;20079;-62
2022/12/11 02:45:28;;;;;;;66.57;19.83;;;;;;;0.26;95.51;100683.66;5110923;28;20044;-62
2022/12/11 02:47:57;;;;;;;71.43;21.60;;;;;;;0.15;95.68;100686.06;5110837;28;20054;-62
2022/12/11 02:50:25;;;;;;;69.40;21.08;;;;;;;0.14;96.13;100684.38;5110885;28;20070;-62
2022/12/11 02:52:56;;;;;;;75.60;23.05;;;;;;;0.30;95.53;100673.88;5110671;28;20109;-62
2022/12/11 02:55:25;;;;;;;66.50;21.27;;;;;;;0.40;95.38;100669.81;5110347;28;20124;-62
2022/12/11 02:58:05;;;;;;;71.80;22.52;;;;;;;0.40;95.04;100671.56;5110959;28;20040;-62
2022/12/11 03:00:31;;;;;;;78.60;22.00;;;;;;;0.46;95.52;100666.84;5110631;28;20051;-62
2022/12/11 03:02:58;;;;;;;80.45;22.88;;;;;;;0.29;96.16;100665.22;5110462;28;20489;-62
2022/12/11 03:05:26;;;;;;;77.13;23.23;;;;;;;0.32;96.52;100664.19;5108650;28;20044;-62
2022/12/11 03:07:53;;;;;;;84.10;24.30;;;;;;;0.27;97.02;100655.78;5110190;28;20123;-62
2022/12/11 03:10:20;;;;;;;85.18;23.80;;;;;;;0.21;96.64;100662.22;5110344;28;20050;-62
2022/12/11 03:12:51;;;;;;;90.45;24.70;;;;;;;0.11;97.79;100663.66;5110652;28;20048;-62
2022/12/11 03:15:22;;;;;;;84.65;23.85;;;;;;;0.26;97.55;100656.72;5110332;28;20070;-62
2022/12/11 03:18:04;;;;;;;85.28;24.02;;;;;;;0.34;97.10;100665.78;5110187;28;20043;-61
2022/12/11 03:20:39;;;;;;;77.97;22.65;;;;;;;0.23;97.53;100664.72;5110276;28;20054;-62
2022/12/11 03:23:30;;;;;;;85.47;24.35;;;;;;;0.19;97.22;100664.06;5109923;28;20063;-62
2022/12/11 03:26:04;;;;;;;90.03;23.77;;;;;;;0.26;96.41;100664.56;5110211;28;20058;-62
2022/12/11 03:28:44;;;;;;;82.57;23.35;;;;;;;0.15;97.77;100676.44;5109975;28;20048;-62
2022/12/11 03:31:16;;;;;;;81.25;23.45;;;;;;;0.22;97.63;100666.50;5110128;28;20044;-62
2022/12/11 03:33:46;;;;;;;75.78;24.63;;;;;;;0.20;97.70;100670.97;5109868;28;20054;-62
2022/12/11 03:36:19;;;;;;;74.63;23.15;;;;;;;0.38;96.60;100669.03;5097358;28;20036;-62
2022/12/11 03:38:51;;;;;;;81.03;23.42;;;;;;;0.24;96.89;100669.00;5095355;28;20051;-62
2022/12/11 03:41:21;;;;;;;85.95;25.20;;;;;;;0.27;96.77;100667.06;5096354;28;20044;-62
2022/12/11 03:43:52;;;;;;;79.05;25.42;;;;;;;0.23;97.13;100667.34;5095909;28;20406;-62
2022/12/11 03:46:22;;;;;;;81.13;25.33;;;;;;;0.26;97.16;100682.81;5096023;28;20052;-62
2022/12/11 03:48:50;;;;;;;80.35;23.67;;;;;;;0.30;96.53;100661.66;5096445;28;20051;-62
2022/12/11 03:51:18;;;;;;;79.50;24.35;;;;;;;0.39;96.92;100660.28;5095944;28;20109;-62
2022/12/11 03:53:46;;;;;;;76.65;23.15;;;;;;;0.44;96.62;100657.41;5095795;28;20036;-62
2022/12/11 03:56:15;;;;;;;72.72;22.58;;;;;;;0.55;96.44;100658.44;5095717;28;20554;-62
2022/12/11 03:58:42;;;;;;;72.35;23.35;;;;;;;0.54;96.74;100667.19;5096123;28;20059;-62
2022/12/11 04:01:10;;;;;;;74.53;22.67;;;;;;;0.49;95.68;100658.81;5095800;28;20966;-62
2022/12/11 04:03:37;;;;;;;74.63;21.98;;;;;;;0.60;95.52;100662.53;5095725;28;20040;-62
2022/12/11 04:06:04;;;;;;;73.10;22.45;;;;;;;0.57;95.25;100660.97;5095204;28;20059;-62
2022/12/11 04:08:31;;;;;;;79.18;22.90;;;;;;;0.56;95.23;100665.38;5095209;28;20394;-62
2022/12/11 04:13:44;;;;;;;67.18;21.15;;;;;;;0.62;95.02;100653.72;5095434;28;20397;-62
2022/12/11 04:16:11;;;;;;;68.88;22.25;;;;;;;0.64;95.64;100650.97;5095490;28;20405;-62
2022/12/11 04:24:14;;;;;;;60.95;21.02;;;;;;;0.54;95.35;100651.53;5094980;28;20048;-62
2022/12/11 04:26:43;;;;;;;67.18;21.30;;;;;;;0.54;95.10;100640.25;5095372;28;20106;-62
2022/12/11 04:29:10;;;;;;;59.90;21.02;;;;;;;0.46;95.79;100645.13;5095359;28;20486;-62
2022/12/11 04:31:36;;;;;;;61.58;20.05;;;;;;;0.36;96.20;100636.97;5095366;28;20052;-61
2022/12/11 04:34:03;;;;;;;64.40;21.20;;;;;;;0.17;96.65;100642.44;5094049;28;20490;-62
2022/12/11 04:36:30;;;;;;;65.68;21.30;;;;;;;0.17;96.78;100638.06;5094565;28;20438;-62
2022/12/11 04:38:56;;;;;;;59.63;20.52;;;;;;;0.29;97.10;100636.53;5095171;28;20048;-61
2022/12/11 04:41:23;;;;;;;59.55;20.50;;;;;;;0.41;96.11;100634.09;5095504;28;20052;-62
2022/12/11 04:43:50;;;;;;;58.08;20.65;;;;;;;0.28;96.10;100636.59;5094908;28;20044;-62
2022/12/11 04:46:20;;;;;;;48.25;17.27;;;;;;;0.16;96.07;100630.31;5094559;28;20044;-62
2022/12/11 04:48:47;;;;;;;53.42;19.00;;;;;;;0.03;96.42;100626.75;5094675;28;20517;-62
2022/12/11 04:51:16;;;;;;;54.65;19.38;;;;;;;0.10;96.84;100626.31;5094903;28;20051;-62
2022/12/11 04:53:43;;;;;;;61.97;20.15;;;;;;;0.13;97.03;100620.09;5094569;28;20040;-62
2022/12/11 04:56:13;;;;;;;60.67;19.98;;;;;;;0.16;96.75;100625.09;5093534;28;20382;-62
2022/12/11 04:58:42;;;;;;;61.65;19.50;;;;;;;0.29;96.70;100633.91;5093603;28;20071;-62
2022/12/11 05:01:12;;;;;;;48.55;16.98;;;;;;;0.16;95.91;100630.31;5094778;28;20125;-62
2022/12/11 05:03:40;;;;;;;61.40;19.00;;;;;;;0.07;97.07;100626.47;5094640;28;20047;-62
2022/12/11 05:06:08;;;;;;;61.38;19.30;;;;;;;0.13;95.99;100630.53;5093737;28;20051;-62
2022/12/11 05:08:37;;;;;;;57.03;19.63;;;;;;;0.19;96.16;100637.97;5094794;28;20052;-62
2022/12/11 05:11:06;;;;;;;52.28;18.02;;;;;;;0.14;96.08;100633.00;5094268;28;20551;-62
2022/12/11 05:13:33;;;;;;;55.97;17.80;;;;;;;0.10;96.23;100641.13;5094778;28;20105;-62
2022/12/11 05:16:03;;;;;;;63.30;20.00;;;;;;;0.10;96.63;100641.13;5094295;28;20048;-62
2022/12/11 05:18:29;;;;;;;57.45;19.80;;;;;;;0.03;96.46;100638.03;5094540;28;20408;-62
2022/12/11 05:20:58;;;;;;;54.13;19.10;;;;;;;0.13;96.71;100641.78;5094227;28;20097;-62
2022/12/11 05:23:26;;;;;;;63.25;20.10;;;;;;;0.25;96.36;100642.00;5093770;28;20052;-62
2022/12/11 05:25:58;;;;;;;59.58;19.83;;;;;;;0.29;95.35;100640.88;5094364;28;20097;-62
2022/12/11 05:28:28;;;;;;;62.63;19.63;;;;;;;0.26;95.42;100634.09;5094274;28;20097;-62
2022/12/11 05:30:56;;;;;;;56.20;19.05;;;;;;;0.32;94.93;100632.88;5094270;28;20056;-62
2022/12/11 05:33:24;;;;;;;52.53;18.63;;;;;;;0.34;95.19;100634.44;5094035;28;20044;-62
2022/12/11 05:35:51;;;;;;;54.97;18.85;;;;;;;0.40;94.80;100624.59;5093827;28;20043;-62
2022/12/11 05:38:18;;;;;;;51.53;18.00;;;;;;;0.44;94.69;100620.84;5093853;28;20469;-63
2022/12/11 05:40:54;;;;;;;57.97;19.13;;;;;;;0.40;94.63;100629.81;5093960;28;20048;-62
2022/12/11 05:43:21;;;;;;;54.40;18.60;;;;;;;0.40;94.04;100619.38;5093944;28;20043;-62
2022/12/11 05:45:48;;;;;;;50.50;18.00;;;;;;;0.34;94.45;100618.78;5093477;28;20036;-62
2022/12/11 05:48:14;;;;;;;50.63;19.05;;;;;;;0.37;94.44;100620.41;5094043;28;20145;-62
2022/12/11 05:50:41;;;;;;;48.45;18.67;;;;;;;0.44;94.05;100616.50;5093656;28;20044;-62
2022/12/11 05:53:08;;;;;;;53.90;19.75;;;;;;;0.31;93.86;100624.22;5092706;28;20044;-62
2022/12/11 05:55:34;;;;;;;56.10;19.42;;;;;;;0.36;93.67;100621.31;5093826;28;20044;-62
2022/12/11 05:58:01;;;;;;;55.20;18.70;;;;;;;0.38;94.54;100625.53;5093462;28;20048;-62
2022/12/11 06:00:28;;;;;;;52.70;18.50;;;;;;;0.49;94.44;100617.06;5093635;28;20417;-62
2022/12/11 06:02:58;;;;;;;49.88;18.40;;;;;;;0.59;93.54;100619.94;5093533;28;20040;-62
2022/12/11 06:05:25;;;;;;;51.65;18.80;;;;;;;0.55;92.84;100615.84;5093108;28;20393;-62
2022/12/11 06:07:51;;;;;;;56.10;19.27;;;;;;;0.54;92.78;100617.59;5093040;28;20054;-62
2022/12/11 06:10:18;;;;;;;51.42;18.98;;;;;;;0.37;93.08;100608.19;5093809;28;20082;-62
2022/12/11 06:12:45;;;;;;;52.97;19.20;;;;;;;0.36;92.75;100610.88;5093114;28;20116;-62
2022/12/11 06:15:11;;;;;;;55.53;18.83;;;;;;;0.37;93.73;100610.78;5093527;28;20044;-62
2022/12/11 06:17:38;;;;;;;51.38;18.92;;;;;;;0.46;93.47;100611.19;5093440;28;20071;-62
2022/12/11 06:20:05;;;;;;;60.22;20.10;;;;;;;0.40;92.89;100611.53;5093424;28;20044;-62
2022/12/11 06:22:32;;;;;;;57.08;19.00;;;;;;;0.45;93.25;100612.94;5093082;28;20042;-63
2022/12/11 06:24:58;;;;;;;58.35;19.42;;;;;;;0.39;93.05;100610.72;5092705;28;20048;-62
2022/12/11 06:27:25;;;;;;;52.95;19.08;;;;;;;0.42;92.63;100607.91;5093457;28;20131;-62
2022/12/11 06:29:51;;;;;;;53.13;19.33;;;;;;;0.55;92.84;100610.63;5093467;28;20048;-62
2022/12/11 06:32:18;;;;;;;60.42;20.55;;;;;;;0.62;92.37;100608.47;5093539;28;20044;-62
2022/12/11 06:34:46;;;;;;;62.88;21.45;;;;;;;0.38;92.11;100607.25;5092998;28;20458;-62
2022/12/11 06:37:13;;;;;;;53.75;19.30;;;;;;;0.54;92.07;100606.31;5092860;28;20051;-62
2022/12/11 06:39:39;;;;;;;56.97;20.73;;;;;;;0.47;92.42;100613.69;5093167;28;20044;-62
2022/12/11 06:42:06;;;;;;;54.80;19.73;;;;;;;0.46;92.55;100606.78;5093251;28;20048;-62
2022/12/11 06:44:32;;;;;;;57.60;20.77;;;;;;;0.44;92.55;100610.41;5093174;28;20094;-62
2022/12/11 06:46:59;;;;;;;56.25;19.70;;;;;;;0.38;93.06;100609.00;5093142;28;20058;-62
2022/12/11 06:49:26;;;;;;;55.10;18.75;;;;;;;0.38;93.93;100603.78;5093299;28;20055;-62
2022/12/11 06:51:53;;;;;;;55.90;19.85;;;;;;;0.34;93.48;100605.75;5093268;28;20102;-62
2022/12/11 06:54:19;;;;;;;55.38;20.65;;;;;;;0.37;93.43;100610.78;5093105;28;20439;-62
2022/12/11 06:56:46;;;;;;;53.97;19.38;;;;;;;0.35;93.53;100612.66;5093281;28;20131;-62
2022/12/11 06:59:12;;;;;;;56.83;20.15;;;;;;;0.32;93.88;100607.59;5092863;28;20040;-62
2022/12/11 07:01:39;;;;;;;57.35;20.00;;;;;;;0.33;93.94;100616.31;5093299;28;20485;-63
2022/12/11 07:04:08;;;;;;;56.97;19.50;;;;;;;0.26;94.03;100620.19;5093095;28;20511;-62
2022/12/11 07:06:34;;;;;;;50.65;18.70;;;;;;;0.19;94.25;100617.09;5088154;28;20056;-62
2022/12/11 07:09:04;;;;;;;57.60;20.27;;;;;;;0.25;94.88;100628.94;5072442;28;20497;-62
2022/12/11 07:11:31;;;;;;;54.88;19.17;;;;;;;0.28;93.96;100623.56;5092674;28;20400;-62
2022/12/11 07:13:59;;;;;;;53.00;18.63;;;;;;;0.30;93.86;100627.75;5096706;28;20052;-62
2022/12/11 07:16:26;;;;;;;58.78;19.05;;;;;;;0.30;94.57;100626.91;5096587;28;20127;-62
2022/12/11 07:18:53;;;;;;;47.95;18.00;;;;;;;0.20;94.08;100624.03;5096946;28;20065;-62
2022/12/11 07:21:20;;;;;;;54.22;19.42;;;;;;;0.16;95.19;100625.97;5096366;28;20040;-62
2022/12/11 07:23:47;;;;;;;51.35;18.13;;;;;;;0.19;95.14;100625.75;5096468;28;20131;-62
2022/12/11 07:26:17;;;;;;;56.75;18.35;;;;;;;0.32;94.51;100625.03;5096605;28;20044;-62
2022/12/11 07:28:44;;;;;;;54.67;18.75;;;;;;;0.33;94.45;100627.56;5096476;28;20048;-62
2022/12/11 07:31:13;;;;;;;60.03;18.70;;;;;;;0.14;94.21;100625.19;5096529;28;20405;-62
2022/12/11 07:33:41;;;;;;;59.15;16.70;;;;;;;0.16;94.74;100625.97;5094934;28;20497;-62
2022/12/11 07:36:09;;;;;;;49.45;18.45;;;;;;;0.15;94.98;100633.88;5095721;28;20069;-62
2022/12/11 07:38:36;;;;;;;48.60;17.58;;;;;;;0.15;94.66;100629.50;5096327;28;20040;-62
2022/12/11 07:41:07;;;;;;;48.45;17.23;;;;;;;0.24;94.35;100627.25;5096325;28;20146;-62
2022/12/11 07:43:34;;;;;;;48.60;16.55;;;;;;;0.18;94.30;100633.69;5096104;28;20046;-62
2022/12/11 07:46:03;;;;;;;47.00;16.60;;;;;;;0.12;94.97;100634.88;5095773;28;20085;-62
2022/12/11 07:48:31;;;;;;;42.65;15.60;;;;;;;0.13;95.03;100628.75;5096356;28;20131;-62
2022/12/11 07:51:18;;;;;;;46.97;16.38;;;;;;;0.22;94.49;100637.81;5095939;28;20058;-62
2022/12/11 07:53:47;;;;;;;40.67;15.50;;;;;;;0.30;94.73;100632.13;5096047;28;20435;-62
2022/12/11 07:56:15;;;;;;;49.60;16.40;;;;;;;0.15;95.08;100633.88;5095870;28;20123;-62
2022/12/11 07:58:42;;;;;;;49.55;16.75;;;;;;;0.19;94.13;100632.75;5095845;28;20054;-62
2022/12/11 08:01:14;;;;;;;51.00;16.77;;;;;;;0.25;94.09;100639.38;5096024;28;20052;-62
2022/12/11 08:03:42;;;;;;;39.30;15.40;;;;;;;0.26;94.27;100636.69;5096037;28;20405;-62
2022/12/11 08:06:09;;;;;;;45.15;16.52;;;;;;;0.18;92.78;100633.69;5095057;28;20428;-62
2022/12/11 08:08:36;;;;;;;39.53;15.20;;;;;;;0.20;93.73;100634.47;5095531;28;20052;-62
2022/12/11 08:11:05;;;;;;;40.33;14.57;;;;;;;0.19;93.25;100630.16;5095867;28;20047;-62
2022/12/11 08:13:33;;;;;;;51.10;16.65;;;;;;;0.11;93.50;100632.34;5095313;28;20047;-62
2022/12/11 08:16:05;;;;;;;47.25;16.40;;;;;;;0.24;93.33;100629.88;5095696;28;20126;-62
2022/12/11 08:18:33;;;;;;;41.38;15.45;;;;;;;0.35;93.64;100627.47;5095457;28;20058;-62
2022/12/11 08:21:18;;;;;;;44.58;15.93;;;;;;;0.34;93.00;100629.22;5095219;28;20097;-62
2022/12/11 08:23:45;;;;;;;35.25;13.80;;;;;;;0.43;92.34;100635.69;5095077;28;20052;-62
2022/12/11 08:26:15;;;;;;;40.38;15.45;;;;;;;0.53;92.43;100634.22;5095309;28;20097;-62
2022/12/11 08:28:41;;;;;;;46.95;15.30;;;;;;;0.64;92.31;100635.31;5095219;28;20036;-62
2022/12/11 08:31:10;;;;;;;43.42;15.95;;;;;;;0.41;92.30;100634.94;5094142;28;20052;-61
2022/12/11 08:33:38;;;;;;;40.33;16.23;;;;;;;0.57;92.58;100632.25;5095108;28;20501;-62
2022/12/11 08:36:08;;;;;;;41.42;16.30;;;;;;;0.56;92.11;100631.44;5094726;28;20093;-62
2022/12/11 08:38:35;;;;;;;45.75;15.90;;;;;;;0.35;93.26;100627.47;5095010;28;20354;-62
2022/12/11 08:41:20;;;;;;;44.47;15.30;;;;;;;0.37;92.69;100630.84;5094720;28;20043;-62
2022/12/11 08:43:48;;;;;;;41.90;15.57;;;;;;;0.43;91.42;100633.06;5095080;28;20054;-62
2022/12/11 08:46:14;;;;;;;37.92;14.98;;;;;;;0.49;92.59;100630.13;5094951;28;20489;-62
2022/12/11 08:48:42;;;;;;;39.92;14.77;;;;;;;0.45;91.09;100625.97;5094646;28;20418;-62
2022/12/11 08:51:12;;;;;;;38.58;14.45;;;;;;;0.48;91.27;100628.41;5094771;28;20103;-62
2022/12/11 08:53:39;;;;;;;41.08;14.50;;;;;;;0.59;90.77;100626.94;5095043;28;20040;-62
2022/12/11 08:56:08;;;;;;;34.22;13.73;;;;;;;0.52;91.47;100627.31;5094509;28;20036;-62
2022/12/11 08:58:36;;;;;;;31.83;13.95;;;;;;;0.65;90.44;100619.56;5094640;28;20386;-62
2022/12/11 09:01:07;;;;;;;41.75;15.30;;;;;;;0.61;90.93;100625.91;5094780;28;20051;-62
2022/12/11 09:03:35;;;;;;;32.85;14.25;;;;;;;0.63;90.23;100626.66;5094866;28;20048;-61
2022/12/11 09:06:06;;;;;;;40.83;15.88;;;;;;;0.55;90.88;100624.50;5093277;28;20048;-61
2022/12/11 09:08:34;;;;;;;36.92;15.82;;;;;;;0.51;91.01;100619.56;5094637;28;20056;-61
2022/12/11 09:11:04;;;;;;;38.70;15.00;;;;;;;0.30;90.87;100622.53;5094259;28;20044;-61
2022/12/11 09:13:32;;;;;;;37.10;15.10;;;;;;;0.27;91.14;100627.91;5094596;28;20090;-62
2022/12/11 09:15:59;;;;;;;45.30;14.88;;;;;;;0.47;90.87;100623.28;5093935;28;20113;-62
2022/12/11 09:18:26;;;;;;;37.72;13.98;;;;;;;0.24;91.67;100633.34;5094422;28;20071;-61
2022/12/11 09:21:12;;;;;;;39.85;14.90;;;;;;;0.30;91.52;100627.75;5094178;28;20543;-62
2022/12/11 09:23:40;;;;;;;38.08;14.73;;;;;;;0.25;91.34;100635.00;5092847;28;20044;-61
2022/12/11 09:26:10;;;;;;;37.17;14.15;;;;;;;0.37;91.13;100630.84;5094220;28;20072;-61
2022/12/11 09:28:37;;;;;;;40.03;14.25;;;;;;;0.28;89.73;100636.59;5094107;28;20134;-62
2022/12/11 09:31:09;;;;;;;35.78;13.98;;;;;;;0.34;89.94;100634.44;5094313;28;20101;-62
2022/12/11 09:33:36;;;;;;;38.88;14.30;;;;;;;0.19;90.10;100630.97;5093411;28;20467;-62
2022/12/11 09:36:04;;;;;;;33.13;13.30;;;;;;;0.31;89.59;100634.66;5093775;28;20558;-62
2022/12/11 09:38:32;;;;;;;33.75;14.18;;;;;;;0.44;89.11;100634.75;5093813;28;20043;-62
2022/12/11 09:40:59;;;;;;;34.40;13.15;;;;;;;0.40;88.96;100633.28;5094249;28;20048;-62
2022/12/11 09:43:47;;;;;;;36.88;13.75;;;;;;;0.34;88.99;100639.66;5093927;28;20062;-62
2022/12/11 09:46:16;;;;;;;35.83;12.60;;;;;;;0.43;88.62;100640.91;5092518;28;20064;-62
2022/12/11 09:48:46;;;;;;;32.55;12.60;;;;;;;0.41;88.32;100631.50;5093851;28;20051;-62
2022/12/11 09:51:26;;;;;;;28.23;13.02;;;;;;;0.27;89.03;100627.09;5093329;28;20054;-62
2022/12/11 09:53:55;;;;;;;38.83;13.77;;;;;;;0.17;90.04;100626.78;5093952;28;20079;-62
2022/12/11 09:56:32;;;;;;;34.05;13.80;;;;;;;0.38;89.04;100629.88;5092280;28;20044;-63
2022/12/11 09:59:39;;;;;;;32.50;12.88;;;;;;;0.44;88.63;100620.84;5093483;28;20046;-62
2022/12/11 10:02:45;;;;;;;30.67;12.52;;;;;;;0.49;88.39;100624.91;5093126;28;20035;-62
2022/12/11 10:05:25;;;;;;;35.15;13.13;;;;;;;0.60;88.50;100621.63;5093169;28;20127;-62
2022/12/11 10:08:19;;;;;;;34.22;13.05;;;;;;;0.68;87.26;100622.00;5093171;28;20086;-62
2022/12/11 10:11:00;;;;;;;35.70;14.38;;;;;;;0.85;87.31;100627.97;5092052;28;20072;-62
2022/12/11 10:13:56;;;;;;;33.35;14.35;;;;;;;0.83;87.14;100622.00;5093439;28;20055;-62
2022/12/11 10:16:38;;;;;;;36.20;14.18;;;;;;;0.69;87.27;100623.69;5093663;28;20136;-62
2022/12/11 10:19:04;;;;;;;40.20;15.90;;;;;;;0.60;88.22;100615.56;5093499;28;20562;-62
2022/12/11 10:21:40;;;;;;;41.65;14.73;;;;;;;0.71;87.80;100620.97;5093523;28;20097;-62
2022/12/11 10:24:34;;;;;;;45.85;14.98;;;;;;;0.44;88.77;100613.88;5092874;28;20127;-62
2022/12/11 10:27:23;;;;;;;41.88;15.43;;;;;;;0.62;88.88;100611.94;5106292;28;20412;-62
2022/12/11 10:30:15;;;;;;;39.05;15.13;;;;;;;0.87;88.03;100611.25;5093209;28;20044;-62
2022/12/11 10:33:10;;;;;;;39.83;15.80;;;;;;;0.87;87.02;100613.03;5093252;28;20044;-62
2022/12/11 10:35:45;;;;;;;38.53;14.15;;;;;;;0.83;87.80;100603.72;5092633;28;20091;-62
2022/12/11 10:38:33;;;;;;;43.38;15.48;;;;;;;0.67;87.73;100606.41;5093293;28;20048;-62
2022/12/11 10:41:03;;;;;;;42.35;15.05;;;;;;;0.73;87.07;100606.91;5093288;28;20052;-62
2022/12/11 10:43:33;;;;;;;39.13;15.13;;;;;;;0.60;87.69;100608.59;5093529;28;20485;-62
2022/12/11 10:46:00;;;;;;;43.78;16.75;;;;;;;0.56;88.02;100605.31;5095567;28;20119;-62
2022/12/11 10:48:26;;;;;;;46.38;16.20;;;;;;;0.59;87.75;100596.44;5096902;28;20436;-62
2022/12/11 10:51:00;;;;;;;41.85;15.57;;;;;;;0.69;87.40;100592.34;5097286;28;20044;-62
2022/12/11 10:53:28;;;;;;;46.35;15.98;;;;;;;0.54;88.03;100588.88;5097189;28;20055;-62
2022/12/11 10:55:57;;;;;;;40.47;15.45;;;;;;;0.53;88.53;100583.78;5097161;28;20048;-62
2022/12/11 10:58:27;;;;;;;41.25;15.10;;;;;;;0.48;89.03;100583.22;5096692;28;20378;-63
2022/12/11 11:01:06;;;;;;;43.90;15.13;;;;;;;0.40;88.84;100580.22;5097161;28;20047;-62
2022/12/11 11:03:35;;;;;;;50.75;16.80;;;;;;;0.46;89.14;100574.66;5096928;28;20044;-62
2022/12/11 11:06:05;;;;;;;39.67;15.15;;;;;;;0.54;88.61;100575.84;5096061;28;20036;-62
2022/12/11 11:08:45;;;;;;;46.58;16.58;;;;;;;0.52;89.36;100576.88;5096826;28;20489;-62
2022/12/11 11:11:20;;;;;;;44.40;16.40;;;;;;;0.55;88.82;100574.91;5096748;28;20047;-62
2022/12/11 11:13:47;;;;;;;44.30;16.42;;;;;;;0.59;88.02;100577.34;5096797;28;20490;-62
2022/12/11 11:16:17;;;;;;;44.25;15.80;;;;;;;0.47;89.17;100569.31;5096432;28;20044;-62
2022/12/11 11:18:51;;;;;;;45.95;17.27;;;;;;;0.57;89.27;100570.44;5096901;28;20074;-62
2022/12/11 11:21:22;;;;;;;42.20;16.23;;;;;;;0.57;89.26;100564.38;5096007;28;20400;-62
2022/12/11 11:23:50;;;;;;;41.53;16.70;;;;;;;0.50;88.83;100568.28;5096534;28;20445;-62
2022/12/11 11:26:21;;;;;;;46.05;16.00;;;;;;;0.79;88.52;100571.72;5096405;28;20052;-62
2022/12/11 11:28:57;;;;;;;43.03;16.60;;;;;;;0.85;87.49;100568.72;5096622;28;20048;-62
2022/12/11 11:31:34;;;;;;;47.15;16.75;;;;;;;0.82;87.54;100576.78;5096516;28;20560;-62
2022/12/11 11:34:06;;;;;;;37.33;16.05;;;;;;;0.88;87.28;100572.94;5096358;28;20048;-62
2022/12/11 11:36:36;;;;;;;39.13;17.15;;;;;;;0.85;86.97;100573.94;5096345;28;20524;-62
2022/12/11 11:39:30;;;;;;;43.75;16.42;;;;;;;0.50;88.29;100573.53;5096053;28;20048;-62
2022/12/11 11:42:09;;;;;;;48.17;17.65;;;;;;;0.51;88.27;100564.75;5096112;28;20044;-62
2022/12/11 11:44:41;;;;;;;43.15;18.20;;;;;;;0.60;88.84;100555.50;5096151;28;20046;-62